Portada
METAR-TAF:

METAR-TAF

Aeroports :

Sullivan County International Airport

Monticello, Nova York, Estats Units d'Amèrica

latitud: 41-42N, longitud: 074-48W, altitud: 428 m

Observació

L'informe es va fer fa 23 minuts, a les 18:56 UTC
Vent 9 kt del Oest, variant entre Sud-Oest i Oest/Nord-Oest
Temperatura 31°C
Humitat 49%
Pressió 1018 hPa
Visibilitat: 16.1 km
Núvols disperses a una alçada de 4700 ft

METAR: KMSV 161856Z AUTO 26009KT 220V290 10SM SCT047 31/19 A3007 RMK AO2 SLP175 T03060189

Hora: 15:19 (19:19 UTC)


TAF: manca

Observacions i pronòstics meteorològics de més de 4000 aeroports (METAR i TAF).

Les estacions disponibles són els punts grocs i vermells al mapa.

Posi el ratolí al punt desitjat per veure el nom de l'estació.

Feu clic per veure les observacions i els pronòstics meteorològics.

Per canviar el mapa: feu clic els botons verds amb una creu de color negre per apropar; al botó verd amb un guió per allunyar la imatge; o en les fletxes verdes per a mapes adjacents.


METAR-TAF: